sensor_id;sensor_type;location;lat;lon;timestamp;P1;durP1;ratioP1;P2;durP2;ratioP2
6135;SDS011;24008;42.664;23.372;2023-12-28T00:01:40;31.40;;;18.23;;
6135;SDS011;24008;42.664;23.372;2023-12-28T00:04:07;27.37;;;15.73;;
6135;SDS011;24008;42.664;23.372;2023-12-28T00:06:34;53.10;;;29.17;;
6135;SDS011;24008;42.664;23.372;2023-12-28T00:09:00;52.37;;;27.30;;
6135;SDS011;24008;42.664;23.372;2023-12-28T00:11:27;45.30;;;24.87;;
6135;SDS011;24008;42.664;23.372;2023-12-28T00:13:54;36.03;;;20.63;;
6135;SDS011;24008;42.664;23.372;2023-12-28T00:16:20;31.20;;;18.10;;
6135;SDS011;24008;42.664;23.372;2023-12-28T00:18:48;39.23;;;21.27;;
6135;SDS011;24008;42.664;23.372;2023-12-28T00:21:15;38.80;;;22.63;;
6135;SDS011;24008;42.664;23.372;2023-12-28T00:23:42;29.43;;;17.47;;
6135;SDS011;24008;42.664;23.372;2023-12-28T00:26:08;30.17;;;16.30;;
6135;SDS011;24008;42.664;23.372;2023-12-28T00:28:35;19.40;;;11.90;;
6135;SDS011;24008;42.664;23.372;2023-12-28T00:31:02;22.80;;;13.27;;
6135;SDS011;24008;42.664;23.372;2023-12-28T00:33:28;16.17;;;11.63;;
6135;SDS011;24008;42.664;23.372;2023-12-28T00:35:57;16.43;;;10.13;;
6135;SDS011;24008;42.664;23.372;2023-12-28T00:38:24;15.63;;;9.90;;
6135;SDS011;24008;42.664;23.372;2023-12-28T00:40:50;15.70;;;10.83;;
6135;SDS011;24008;42.664;23.372;2023-12-28T00:43:17;14.47;;;8.67;;
6135;SDS011;24008;42.664;23.372;2023-12-28T00:45:43;11.97;;;8.13;;
6135;SDS011;24008;42.664;23.372;2023-12-28T00:48:10;13.10;;;8.63;;
6135;SDS011;24008;42.664;23.372;2023-12-28T00:50:37;13.33;;;8.17;;
6135;SDS011;24008;42.664;23.372;2023-12-28T00:53:05;12.37;;;8.20;;
6135;SDS011;24008;42.664;23.372;2023-12-28T00:55:32;13.13;;;8.87;;
6135;SDS011;24008;42.664;23.372;2023-12-28T00:57:58;14.23;;;9.47;;
6135;SDS011;24008;42.664;23.372;2023-12-28T01:00:25;14.37;;;8.93;;
6135;SDS011;24008;42.664;23.372;2023-12-28T01:02:52;17.17;;;9.23;;
6135;SDS011;24008;42.664;23.372;2023-12-28T01:05:19;14.40;;;9.80;;
6135;SDS011;24008;42.664;23.372;2023-12-28T01:07:46;17.03;;;10.30;;
6135;SDS011;24008;42.664;23.372;2023-12-28T01:10:14;15.73;;;9.37;;
6135;SDS011;24008;42.664;23.372;2023-12-28T01:12:41;14.17;;;9.27;;
6135;SDS011;24008;42.664;23.372;2023-12-28T01:15:08;17.90;;;9.70;;
6135;SDS011;24008;42.664;23.372;2023-12-28T01:17:34;13.30;;;9.30;;
6135;SDS011;24008;42.664;23.372;2023-12-28T01:20:01;13.20;;;8.83;;
6135;SDS011;24008;42.664;23.372;2023-12-28T01:22:30;15.07;;;8.90;;
6135;SDS011;24008;42.664;23.372;2023-12-28T01:24:56;16.17;;;9.90;;
6135;SDS011;24008;42.664;23.372;2023-12-28T01:27:25;16.90;;;9.77;;
6135;SDS011;24008;42.664;23.372;2023-12-28T01:29:51;22.03;;;11.70;;
6135;SDS011;24008;42.664;23.372;2023-12-28T01:32:18;17.50;;;11.60;;
6135;SDS011;24008;42.664;23.372;2023-12-28T01:34:45;18.70;;;11.50;;
6135;SDS011;24008;42.664;23.372;2023-12-28T01:37:11;15.07;;;10.20;;
6135;SDS011;24008;42.664;23.372;2023-12-28T01:39:38;18.47;;;10.90;;
6135;SDS011;24008;42.664;23.372;2023-12-28T01:42:05;17.07;;;9.90;;
6135;SDS011;24008;42.664;23.372;2023-12-28T01:44:33;15.60;;;10.80;;
6135;SDS011;24008;42.664;23.372;2023-12-28T01:47:00;22.27;;;13.17;;
6135;SDS011;24008;42.664;23.372;2023-12-28T01:49:27;24.17;;;12.90;;
6135;SDS011;24008;42.664;23.372;2023-12-28T01:51:54;22.23;;;13.93;;
6135;SDS011;24008;42.664;23.372;2023-12-28T01:54:21;24.17;;;14.27;;
6135;SDS011;24008;42.664;23.372;2023-12-28T01:56:48;24.30;;;14.07;;
6135;SDS011;24008;42.664;23.372;2023-12-28T01:59:15;22.13;;;13.53;;
6135;SDS011;24008;42.664;23.372;2023-12-28T02:01:45;23.67;;;13.40;;
6135;SDS011;24008;42.664;23.372;2023-12-28T02:04:11;21.83;;;13.73;;
6135;SDS011;24008;42.664;23.372;2023-12-28T02:06:39;26.20;;;13.57;;
6135;SDS011;24008;42.664;23.372;2023-12-28T02:09:06;23.60;;;14.43;;
6135;SDS011;24008;42.664;23.372;2023-12-28T02:11:33;22.23;;;13.23;;
6135;SDS011;24008;42.664;23.372;2023-12-28T02:13:59;19.27;;;12.27;;
6135;SDS011;24008;42.664;23.372;2023-12-28T02:16:28;15.33;;;9.63;;
6135;SDS011;24008;42.664;23.372;2023-12-28T02:19:03;15.97;;;9.60;;
6135;SDS011;24008;42.664;23.372;2023-12-28T02:21:40;20.57;;;12.67;;
6135;SDS011;24008;42.664;23.372;2023-12-28T02:24:07;20.10;;;12.57;;
6135;SDS011;24008;42.664;23.372;2023-12-28T02:26:35;19.47;;;12.53;;
6135;SDS011;24008;42.664;23.372;2023-12-28T02:29:01;21.70;;;13.77;;
6135;SDS011;24008;42.664;23.372;2023-12-28T02:31:35;20.87;;;12.80;;
6135;SDS011;24008;42.664;23.372;2023-12-28T02:34:06;23.43;;;14.20;;
6135;SDS011;24008;42.664;23.372;2023-12-28T02:36:38;19.27;;;13.27;;
6135;SDS011;24008;42.664;23.372;2023-12-28T02:39:07;23.37;;;13.70;;
6135;SDS011;24008;42.664;23.372;2023-12-28T02:41:38;21.43;;;13.57;;
6135;SDS011;24008;42.664;23.372;2023-12-28T02:44:05;28.07;;;14.10;;
6135;SDS011;24008;42.664;23.372;2023-12-28T02:46:32;24.23;;;14.47;;
6135;SDS011;24008;42.664;23.372;2023-12-28T02:48:59;22.87;;;14.87;;
6135;SDS011;24008;42.664;23.372;2023-12-28T02:51:25;23.07;;;14.17;;
6135;SDS011;24008;42.664;23.372;2023-12-28T02:53:52;20.33;;;14.07;;
6135;SDS011;24008;42.664;23.372;2023-12-28T02:56:19;22.60;;;14.70;;
6135;SDS011;24008;42.664;23.372;2023-12-28T02:58:47;22.53;;;14.87;;
6135;SDS011;24008;42.664;23.372;2023-12-28T03:01:13;23.87;;;14.67;;
6135;SDS011;24008;42.664;23.372;2023-12-28T03:03:40;24.57;;;15.03;;
6135;SDS011;24008;42.664;23.372;2023-12-28T03:06:07;23.40;;;15.10;;
6135;SDS011;24008;42.664;23.372;2023-12-28T03:08:33;23.00;;;13.93;;
6135;SDS011;24008;42.664;23.372;2023-12-28T03:11:00;25.23;;;15.00;;
6135;SDS011;24008;42.664;23.372;2023-12-28T03:13:27;25.47;;;14.70;;
6135;SDS011;24008;42.664;23.372;2023-12-28T03:15:55;25.60;;;14.70;;
6135;SDS011;24008;42.664;23.372;2023-12-28T03:18:21;25.23;;;15.10;;
6135;SDS011;24008;42.664;23.372;2023-12-28T03:20:48;22.23;;;14.33;;
6135;SDS011;24008;42.664;23.372;2023-12-28T03:23:15;23.23;;;13.60;;
6135;SDS011;24008;42.664;23.372;2023-12-28T03:25:41;22.97;;;13.87;;
6135;SDS011;24008;42.664;23.372;2023-12-28T03:28:08;22.03;;;12.90;;
6135;SDS011;24008;42.664;23.372;2023-12-28T03:30:35;27.40;;;14.77;;
6135;SDS011;24008;42.664;23.372;2023-12-28T03:33:03;25.67;;;14.80;;
6135;SDS011;24008;42.664;23.372;2023-12-28T03:35:30;22.30;;;12.90;;
6135;SDS011;24008;42.664;23.372;2023-12-28T03:37:57;19.57;;;13.77;;
6135;SDS011;24008;42.664;23.372;2023-12-28T03:40:23;22.97;;;14.30;;
6135;SDS011;24008;42.664;23.372;2023-12-28T03:42:50;23.27;;;13.90;;
6135;SDS011;24008;42.664;23.372;2023-12-28T03:45:17;22.03;;;14.03;;
6135;SDS011;24008;42.664;23.372;2023-12-28T03:47:43;27.30;;;15.87;;
6135;SDS011;24008;42.664;23.372;2023-12-28T03:50:11;23.20;;;14.47;;
6135;SDS011;24008;42.664;23.372;2023-12-28T03:52:38;25.20;;;15.37;;
6135;SDS011;24008;42.664;23.372;2023-12-28T03:55:05;27.40;;;16.20;;
6135;SDS011;24008;42.664;23.372;2023-12-28T03:57:31;29.77;;;17.27;;
6135;SDS011;24008;42.664;23.372;2023-12-28T03:59:58;31.30;;;18.27;;
6135;SDS011;24008;42.664;23.372;2023-12-28T04:02:25;30.90;;;18.53;;
6135;SDS011;24008;42.664;23.372;2023-12-28T04:04:55;31.03;;;17.80;;
6135;SDS011;24008;42.664;23.372;2023-12-28T04:07:25;29.50;;;17.50;;
6135;SDS011;24008;42.664;23.372;2023-12-28T04:09:51;29.40;;;16.77;;
6135;SDS011;24008;42.664;23.372;2023-12-28T04:12:17;23.47;;;14.77;;
6135;SDS011;24008;42.664;23.372;2023-12-28T04:14:44;23.27;;;13.40;;
6135;SDS011;24008;42.664;23.372;2023-12-28T04:17:10;21.50;;;11.97;;
6135;SDS011;24008;42.664;23.372;2023-12-28T04:19:37;21.67;;;12.63;;
6135;SDS011;24008;42.664;23.372;2023-12-28T04:22:04;19.07;;;11.17;;
6135;SDS011;24008;42.664;23.372;2023-12-28T04:24:32;19.73;;;10.77;;
6135;SDS011;24008;42.664;23.372;2023-12-28T04:26:59;18.83;;;11.70;;
6135;SDS011;24008;42.664;23.372;2023-12-28T04:29:25;18.10;;;11.40;;
6135;SDS011;24008;42.664;23.372;2023-12-28T04:31:52;20.10;;;11.33;;
6135;SDS011;24008;42.664;23.372;2023-12-28T04:34:19;15.20;;;10.23;;
6135;SDS011;24008;42.664;23.372;2023-12-28T04:36:45;17.67;;;11.27;;
6135;SDS011;24008;42.664;23.372;2023-12-28T04:39:14;17.87;;;11.10;;
6135;SDS011;24008;42.664;23.372;2023-12-28T04:41:42;20.63;;;11.87;;
6135;SDS011;24008;42.664;23.372;2023-12-28T04:44:09;20.80;;;12.77;;
6135;SDS011;24008;42.664;23.372;2023-12-28T04:46:37;23.97;;;13.97;;
6135;SDS011;24008;42.664;23.372;2023-12-28T04:49:05;24.17;;;14.33;;
6135;SDS011;24008;42.664;23.372;2023-12-28T04:51:32;24.03;;;14.43;;
6135;SDS011;24008;42.664;23.372;2023-12-28T04:53:59;23.37;;;13.77;;
6135;SDS011;24008;42.664;23.372;2023-12-28T04:56:26;25.63;;;13.63;;
6135;SDS011;24008;42.664;23.372;2023-12-28T04:58:54;23.97;;;14.93;;
6135;SDS011;24008;42.664;23.372;2023-12-28T05:01:20;25.60;;;14.57;;
6135;SDS011;24008;42.664;23.372;2023-12-28T05:03:47;26.27;;;15.17;;
6135;SDS011;24008;42.664;23.372;2023-12-28T05:06:14;25.57;;;14.90;;
6135;SDS011;24008;42.664;23.372;2023-12-28T05:08:41;23.40;;;13.53;;
6135;SDS011;24008;42.664;23.372;2023-12-28T05:11:08;26.83;;;13.57;;
6135;SDS011;24008;42.664;23.372;2023-12-28T05:13:34;21.00;;;13.80;;
6135;SDS011;24008;42.664;23.372;2023-12-28T05:16:03;21.50;;;14.47;;
6135;SDS011;24008;42.664;23.372;2023-12-28T05:18:30;25.93;;;15.07;;
6135;SDS011;24008;42.664;23.372;2023-12-28T05:20:56;28.93;;;15.63;;
6135;SDS011;24008;42.664;23.372;2023-12-28T05:23:23;25.77;;;15.53;;
6135;SDS011;24008;42.664;23.372;2023-12-28T05:25:50;25.93;;;15.13;;
6135;SDS011;24008;42.664;23.372;2023-12-28T05:28:16;42.50;;;23.40;;
6135;SDS011;24008;42.664;23.372;2023-12-28T05:30:43;53.03;;;30.23;;
6135;SDS011;24008;42.664;23.372;2023-12-28T05:33:11;59.40;;;32.23;;
6135;SDS011;24008;42.664;23.372;2023-12-28T05:35:37;61.10;;;35.67;;
6135;SDS011;24008;42.664;23.372;2023-12-28T05:38:04;71.07;;;38.37;;
6135;SDS011;24008;42.664;23.372;2023-12-28T05:40:31;66.83;;;38.53;;
6135;SDS011;24008;42.664;23.372;2023-12-28T05:42:57;86.17;;;47.43;;
6135;SDS011;24008;42.664;23.372;2023-12-28T05:45:24;76.97;;;43.77;;
6135;SDS011;24008;42.664;23.372;2023-12-28T05:47:51;80.97;;;43.63;;
6135;SDS011;24008;42.664;23.372;2023-12-28T05:50:19;57.63;;;34.67;;
6135;SDS011;24008;42.664;23.372;2023-12-28T05:52:46;61.17;;;35.23;;
6135;SDS011;24008;42.664;23.372;2023-12-28T05:55:12;63.63;;;36.90;;
6135;SDS011;24008;42.664;23.372;2023-12-28T05:57:39;66.47;;;38.13;;
6135;SDS011;24008;42.664;23.372;2023-12-28T06:00:06;53.97;;;32.60;;
6135;SDS011;24008;42.664;23.372;2023-12-28T06:02:34;55.00;;;32.83;;
6135;SDS011;24008;42.664;23.372;2023-12-28T06:05:01;68.33;;;38.30;;
6135;SDS011;24008;42.664;23.372;2023-12-28T06:07:29;56.30;;;31.40;;
6135;SDS011;24008;42.664;23.372;2023-12-28T06:09:56;63.60;;;37.13;;
6135;SDS011;24008;42.664;23.372;2023-12-28T06:12:23;63.10;;;35.87;;
6135;SDS011;24008;42.664;23.372;2023-12-28T06:14:49;51.57;;;31.93;;
6135;SDS011;24008;42.664;23.372;2023-12-28T06:17:16;60.77;;;35.17;;
6135;SDS011;24008;42.664;23.372;2023-12-28T06:19:44;58.60;;;32.37;;
6135;SDS011;24008;42.664;23.372;2023-12-28T06:22:10;63.23;;;37.00;;
6135;SDS011;24008;42.664;23.372;2023-12-28T06:24:39;81.07;;;46.20;;
6135;SDS011;24008;42.664;23.372;2023-12-28T06:27:06;91.53;;;46.33;;
6135;SDS011;24008;42.664;23.372;2023-12-28T06:29:33;87.93;;;48.03;;
6135;SDS011;24008;42.664;23.372;2023-12-28T06:31:59;69.77;;;40.47;;
6135;SDS011;24008;42.664;23.372;2023-12-28T06:34:26;61.20;;;37.47;;
6135;SDS011;24008;42.664;23.372;2023-12-28T06:36:53;60.63;;;33.97;;
6135;SDS011;24008;42.664;23.372;2023-12-28T06:39:19;60.10;;;35.60;;
6135;SDS011;24008;42.664;23.372;2023-12-28T06:41:48;61.53;;;36.97;;
6135;SDS011;24008;42.664;23.372;2023-12-28T06:44:14;58.87;;;35.53;;
6135;SDS011;24008;42.664;23.372;2023-12-28T06:46:41;78.10;;;45.30;;
6135;SDS011;24008;42.664;23.372;2023-12-28T06:49:08;76.97;;;44.70;;
6135;SDS011;24008;42.664;23.372;2023-12-28T06:51:35;81.73;;;46.33;;
6135;SDS011;24008;42.664;23.372;2023-12-28T06:54:01;76.30;;;44.33;;
6135;SDS011;24008;42.664;23.372;2023-12-28T06:56:28;73.17;;;42.67;;
6135;SDS011;24008;42.664;23.372;2023-12-28T06:58:56;67.60;;;41.40;;
6135;SDS011;24008;42.664;23.372;2023-12-28T07:01:23;68.00;;;43.20;;
6135;SDS011;24008;42.664;23.372;2023-12-28T07:03:50;63.53;;;40.10;;
6135;SDS011;24008;42.664;23.372;2023-12-28T07:06:17;53.67;;;34.03;;
6135;SDS011;24008;42.664;23.372;2023-12-28T07:08:43;53.83;;;33.20;;
6135;SDS011;24008;42.664;23.372;2023-12-28T07:11:10;50.33;;;30.97;;
6135;SDS011;24008;42.664;23.372;2023-12-28T07:13:37;52.00;;;31.00;;
6135;SDS011;24008;42.664;23.372;2023-12-28T07:16:05;50.60;;;30.70;;
6135;SDS011;24008;42.664;23.372;2023-12-28T07:18:32;53.77;;;33.20;;
6135;SDS011;24008;42.664;23.372;2023-12-28T07:20:59;53.43;;;32.77;;
6135;SDS011;24008;42.664;23.372;2023-12-28T07:23:26;61.60;;;40.53;;
6135;SDS011;24008;42.664;23.372;2023-12-28T07:25:53;56.70;;;39.03;;
6135;SDS011;24008;42.664;23.372;2023-12-28T07:28:19;53.67;;;36.73;;
6135;SDS011;24008;42.664;23.372;2023-12-28T07:30:46;59.20;;;36.37;;
6135;SDS011;24008;42.664;23.372;2023-12-28T07:33:14;57.77;;;36.90;;
6135;SDS011;24008;42.664;23.372;2023-12-28T07:35:41;52.93;;;33.57;;
6135;SDS011;24008;42.664;23.372;2023-12-28T07:38:08;58.03;;;37.50;;
6135;SDS011;24008;42.664;23.372;2023-12-28T07:40:35;69.60;;;39.93;;
6135;SDS011;24008;42.664;23.372;2023-12-28T07:43:01;60.80;;;37.83;;
6135;SDS011;24008;42.664;23.372;2023-12-28T07:45:28;64.43;;;37.87;;
6135;SDS011;24008;42.664;23.372;2023-12-28T07:47:55;60.47;;;36.80;;
6135;SDS011;24008;42.664;23.372;2023-12-28T07:50:23;63.13;;;38.13;;
6135;SDS011;24008;42.664;23.372;2023-12-28T07:52:51;60.60;;;38.33;;
6135;SDS011;24008;42.664;23.372;2023-12-28T07:55:17;64.33;;;39.23;;
6135;SDS011;24008;42.664;23.372;2023-12-28T07:57:44;61.07;;;37.87;;
6135;SDS011;24008;42.664;23.372;2023-12-28T08:00:12;55.73;;;36.23;;
6135;SDS011;24008;42.664;23.372;2023-12-28T08:02:39;57.53;;;36.63;;
6135;SDS011;24008;42.664;23.372;2023-12-28T08:05:05;55.07;;;35.50;;
6135;SDS011;24008;42.664;23.372;2023-12-28T08:07:34;54.67;;;36.00;;
6135;SDS011;24008;42.664;23.372;2023-12-28T08:10:01;55.50;;;34.53;;
6135;SDS011;24008;42.664;23.372;2023-12-28T08:12:29;58.07;;;37.23;;
6135;SDS011;24008;42.664;23.372;2023-12-28T08:14:55;53.40;;;35.40;;
6135;SDS011;24008;42.664;23.372;2023-12-28T08:17:22;55.50;;;34.43;;
6135;SDS011;24008;42.664;23.372;2023-12-28T08:19:49;51.30;;;34.97;;
6135;SDS011;24008;42.664;23.372;2023-12-28T08:22:16;54.53;;;33.73;;
6135;SDS011;24008;42.664;23.372;2023-12-28T08:24:45;53.37;;;34.77;;
6135;SDS011;24008;42.664;23.372;2023-12-28T08:27:12;62.20;;;35.67;;
6135;SDS011;24008;42.664;23.372;2023-12-28T08:29:39;53.30;;;35.47;;
6135;SDS011;24008;42.664;23.372;2023-12-28T08:32:07;46.90;;;31.47;;
6135;SDS011;24008;42.664;23.372;2023-12-28T08:34:33;45.60;;;30.20;;
6135;SDS011;24008;42.664;23.372;2023-12-28T08:37:00;50.97;;;29.40;;
6135;SDS011;24008;42.664;23.372;2023-12-28T08:39:27;46.33;;;30.63;;
6135;SDS011;24008;42.664;23.372;2023-12-28T08:41:55;42.23;;;27.70;;
6135;SDS011;24008;42.664;23.372;2023-12-28T08:44:21;45.70;;;28.37;;
6135;SDS011;24008;42.664;23.372;2023-12-28T08:46:48;45.27;;;29.37;;
6135;SDS011;24008;42.664;23.372;2023-12-28T08:49:15;46.60;;;28.63;;
6135;SDS011;24008;42.664;23.372;2023-12-28T08:51:42;48.87;;;28.93;;
6135;SDS011;24008;42.664;23.372;2023-12-28T08:54:09;45.53;;;28.70;;
6135;SDS011;24008;42.664;23.372;2023-12-28T08:56:35;51.47;;;28.97;;
6135;SDS011;24008;42.664;23.372;2023-12-28T08:59:03;50.93;;;30.20;;
6135;SDS011;24008;42.664;23.372;2023-12-28T09:01:30;47.03;;;29.77;;
6135;SDS011;24008;42.664;23.372;2023-12-28T09:03:57;46.87;;;29.97;;
6135;SDS011;24008;42.664;23.372;2023-12-28T09:06:25;48.43;;;31.87;;
6135;SDS011;24008;42.664;23.372;2023-12-28T09:08:51;51.27;;;30.60;;
6135;SDS011;24008;42.664;23.372;2023-12-28T09:11:19;51.67;;;31.37;;
6135;SDS011;24008;42.664;23.372;2023-12-28T09:13:46;50.67;;;31.30;;
6135;SDS011;24008;42.664;23.372;2023-12-28T09:16:33;51.00;;;31.23;;
6135;SDS011;24008;42.664;23.372;2023-12-28T09:19:00;45.97;;;31.27;;
6135;SDS011;24008;42.664;23.372;2023-12-28T09:21:27;50.67;;;32.70;;
6135;SDS011;24008;42.664;23.372;2023-12-28T09:23:53;51.17;;;32.43;;
6135;SDS011;24008;42.664;23.372;2023-12-28T09:26:20;46.77;;;29.70;;
6135;SDS011;24008;42.664;23.372;2023-12-28T09:28:47;51.20;;;31.50;;
6135;SDS011;24008;42.664;23.372;2023-12-28T09:31:13;52.77;;;31.77;;
6135;SDS011;24008;42.664;23.372;2023-12-28T09:33:41;47.77;;;31.57;;
6135;SDS011;24008;42.664;23.372;2023-12-28T09:36:09;46.67;;;30.57;;
6135;SDS011;24008;42.664;23.372;2023-12-28T09:38:37;51.17;;;31.17;;
6135;SDS011;24008;42.664;23.372;2023-12-28T09:41:05;50.73;;;31.47;;
6135;SDS011;24008;42.664;23.372;2023-12-28T09:43:40;47.33;;;31.70;;
6135;SDS011;24008;42.664;23.372;2023-12-28T09:46:12;52.80;;;32.77;;
6135;SDS011;24008;42.664;23.372;2023-12-28T09:48:38;48.40;;;32.63;;
6135;SDS011;24008;42.664;23.372;2023-12-28T09:51:07;50.17;;;30.77;;
6135;SDS011;24008;42.664;23.372;2023-12-28T09:53:36;44.10;;;30.57;;
6135;SDS011;24008;42.664;23.372;2023-12-28T09:56:03;45.47;;;30.93;;
6135;SDS011;24008;42.664;23.372;2023-12-28T09:58:30;48.77;;;31.70;;
6135;SDS011;24008;42.664;23.372;2023-12-28T10:01:01;50.63;;;30.10;;
6135;SDS011;24008;42.664;23.372;2023-12-28T10:03:31;47.47;;;31.03;;
6135;SDS011;24008;42.664;23.372;2023-12-28T10:05:58;48.27;;;33.13;;
6135;SDS011;24008;42.664;23.372;2023-12-28T10:08:26;49.63;;;31.50;;
6135;SDS011;24008;42.664;23.372;2023-12-28T10:10:53;47.67;;;32.97;;
6135;SDS011;24008;42.664;23.372;2023-12-28T10:13:20;51.20;;;32.67;;
6135;SDS011;24008;42.664;23.372;2023-12-28T10:15:48;51.67;;;32.40;;
6135;SDS011;24008;42.664;23.372;2023-12-28T10:18:16;50.00;;;33.97;;
6135;SDS011;24008;42.664;23.372;2023-12-28T10:20:48;49.87;;;32.90;;
6135;SDS011;24008;42.664;23.372;2023-12-28T10:23:16;47.20;;;32.13;;
6135;SDS011;24008;42.664;23.372;2023-12-28T10:25:45;49.47;;;32.87;;
6135;SDS011;24008;42.664;23.372;2023-12-28T10:28:11;46.73;;;33.33;;
6135;SDS011;24008;42.664;23.372;2023-12-28T10:30:38;54.67;;;32.43;;
6135;SDS011;24008;42.664;23.372;2023-12-28T10:33:06;53.20;;;34.23;;
6135;SDS011;24008;42.664;23.372;2023-12-28T10:35:33;53.60;;;31.97;;
6135;SDS011;24008;42.664;23.372;2023-12-28T10:38:00;50.00;;;33.63;;
6135;SDS011;24008;42.664;23.372;2023-12-28T10:40:28;50.37;;;32.10;;
6135;SDS011;24008;42.664;23.372;2023-12-28T10:42:58;53.90;;;32.70;;
6135;SDS011;24008;42.664;23.372;2023-12-28T10:45:28;47.23;;;31.30;;
6135;SDS011;24008;42.664;23.372;2023-12-28T10:48:00;52.73;;;34.40;;
6135;SDS011;24008;42.664;23.372;2023-12-28T10:50:34;50.40;;;31.73;;
6135;SDS011;24008;42.664;23.372;2023-12-28T10:53:08;52.43;;;32.17;;
6135;SDS011;24008;42.664;23.372;2023-12-28T10:55:44;49.17;;;32.63;;
6135;SDS011;24008;42.664;23.372;2023-12-28T10:58:20;50.83;;;32.57;;
6135;SDS011;24008;42.664;23.372;2023-12-28T11:00:54;52.20;;;31.57;;
6135;SDS011;24008;42.664;23.372;2023-12-28T11:03:27;50.07;;;31.50;;
6135;SDS011;24008;42.664;23.372;2023-12-28T11:05:56;50.87;;;32.47;;
6135;SDS011;24008;42.664;23.372;2023-12-28T11:08:24;55.07;;;32.50;;
6135;SDS011;24008;42.664;23.372;2023-12-28T11:10:51;47.33;;;31.67;;
6135;SDS011;24008;42.664;23.372;2023-12-28T11:13:20;54.53;;;32.57;;
6135;SDS011;24008;42.664;23.372;2023-12-28T11:15:47;52.47;;;32.03;;
6135;SDS011;24008;42.664;23.372;2023-12-28T11:18:16;50.27;;;32.37;;
6135;SDS011;24008;42.664;23.372;2023-12-28T11:20:43;56.13;;;32.40;;
6135;SDS011;24008;42.664;23.372;2023-12-28T11:23:11;49.13;;;31.63;;
6135;SDS011;24008;42.664;23.372;2023-12-28T11:25:38;56.90;;;30.13;;
6135;SDS011;24008;42.664;23.372;2023-12-28T11:28:08;50.20;;;29.90;;
6135;SDS011;24008;42.664;23.372;2023-12-28T11:30:37;46.53;;;29.43;;
6135;SDS011;24008;42.664;23.372;2023-12-28T11:33:04;49.17;;;29.70;;
6135;SDS011;24008;42.664;23.372;2023-12-28T11:35:34;49.03;;;29.40;;
6135;SDS011;24008;42.664;23.372;2023-12-28T11:38:03;45.63;;;27.67;;
6135;SDS011;24008;42.664;23.372;2023-12-28T11:40:39;47.03;;;28.13;;
6135;SDS011;24008;42.664;23.372;2023-12-28T11:43:14;46.53;;;28.77;;
6135;SDS011;24008;42.664;23.372;2023-12-28T11:45:48;50.27;;;27.97;;
6135;SDS011;24008;42.664;23.372;2023-12-28T11:48:23;47.10;;;27.47;;
6135;SDS011;24008;42.664;23.372;2023-12-28T11:50:54;46.60;;;27.67;;
6135;SDS011;24008;42.664;23.372;2023-12-28T11:53:22;51.40;;;28.67;;
6135;SDS011;24008;42.664;23.372;2023-12-28T11:55:49;49.40;;;28.57;;
6135;SDS011;24008;42.664;23.372;2023-12-28T11:58:16;43.83;;;27.43;;
6135;SDS011;24008;42.664;23.372;2023-12-28T12:00:43;43.63;;;28.43;;
6135;SDS011;24008;42.664;23.372;2023-12-28T12:03:11;43.93;;;26.60;;
6135;SDS011;24008;42.664;23.372;2023-12-28T12:05:38;46.33;;;27.97;;
6135;SDS011;24008;42.664;23.372;2023-12-28T12:08:05;35.23;;;24.93;;
6135;SDS011;24008;42.664;23.372;2023-12-28T12:10:35;37.43;;;25.40;;
6135;SDS011;24008;42.664;23.372;2023-12-28T12:13:02;42.37;;;25.13;;
6135;SDS011;24008;42.664;23.372;2023-12-28T12:15:29;39.37;;;24.47;;
6135;SDS011;24008;42.664;23.372;2023-12-28T12:17:56;41.10;;;26.07;;
6135;SDS011;24008;42.664;23.372;2023-12-28T12:20:24;46.97;;;26.20;;
6135;SDS011;24008;42.664;23.372;2023-12-28T12:22:51;39.93;;;25.50;;
6135;SDS011;24008;42.664;23.372;2023-12-28T12:25:18;43.50;;;23.97;;
6135;SDS011;24008;42.664;23.372;2023-12-28T12:27:45;36.47;;;23.97;;
6135;SDS011;24008;42.664;23.372;2023-12-28T12:30:12;40.93;;;25.10;;
6135;SDS011;24008;42.664;23.372;2023-12-28T12:32:39;44.63;;;24.70;;
6135;SDS011;24008;42.664;23.372;2023-12-28T12:35:08;37.50;;;23.20;;
6135;SDS011;24008;42.664;23.372;2023-12-28T12:37:37;40.50;;;25.80;;
6135;SDS011;24008;42.664;23.372;2023-12-28T12:40:04;34.73;;;21.00;;
6135;SDS011;24008;42.664;23.372;2023-12-28T12:42:32;32.23;;;20.07;;
6135;SDS011;24008;42.664;23.372;2023-12-28T12:44:59;27.67;;;18.97;;
6135;SDS011;24008;42.664;23.372;2023-12-28T12:47:26;31.00;;;19.10;;
6135;SDS011;24008;42.664;23.372;2023-12-28T12:49:59;31.53;;;18.40;;
6135;SDS011;24008;42.664;23.372;2023-12-28T12:52:26;30.30;;;17.43;;
6135;SDS011;24008;42.664;23.372;2023-12-28T12:54:55;29.47;;;17.93;;
6135;SDS011;24008;42.664;23.372;2023-12-28T12:57:23;25.93;;;17.20;;
6135;SDS011;24008;42.664;23.372;2023-12-28T12:59:50;28.87;;;16.80;;
6135;SDS011;24008;42.664;23.372;2023-12-28T13:02:17;27.27;;;17.13;;
6135;SDS011;24008;42.664;23.372;2023-12-28T13:04:44;30.40;;;19.23;;
6135;SDS011;24008;42.664;23.372;2023-12-28T13:07:11;32.80;;;20.93;;
6135;SDS011;24008;42.664;23.372;2023-12-28T13:09:37;34.67;;;21.60;;
6135;SDS011;24008;42.664;23.372;2023-12-28T13:12:06;36.43;;;21.87;;
6135;SDS011;24008;42.664;23.372;2023-12-28T13:14:34;44.57;;;24.83;;
6135;SDS011;24008;42.664;23.372;2023-12-28T13:17:01;40.73;;;24.07;;
6135;SDS011;24008;42.664;23.372;2023-12-28T13:19:28;35.07;;;22.90;;
6135;SDS011;24008;42.664;23.372;2023-12-28T13:21:54;32.83;;;21.17;;
6135;SDS011;24008;42.664;23.372;2023-12-28T13:24:21;37.53;;;22.50;;
6135;SDS011;24008;42.664;23.372;2023-12-28T13:26:48;47.73;;;27.07;;
6135;SDS011;24008;42.664;23.372;2023-12-28T13:29:16;45.05;;;30.27;;
6135;SDS011;24008;42.664;23.372;2023-12-28T13:31:43;47.10;;;28.57;;
6135;SDS011;24008;42.664;23.372;2023-12-28T13:34:12;44.50;;;28.10;;
6135;SDS011;24008;42.664;23.372;2023-12-28T13:36:39;49.37;;;29.27;;
6135;SDS011;24008;42.664;23.372;2023-12-28T13:39:06;47.37;;;30.67;;
6135;SDS011;24008;42.664;23.372;2023-12-28T13:41:36;52.23;;;29.40;;
6135;SDS011;24008;42.664;23.372;2023-12-28T13:44:04;48.07;;;30.23;;
6135;SDS011;24008;42.664;23.372;2023-12-28T13:46:36;47.35;;;30.02;;
6135;SDS011;24008;42.664;23.372;2023-12-28T13:49:03;51.10;;;31.00;;
6135;SDS011;24008;42.664;23.372;2023-12-28T13:51:30;57.27;;;29.53;;
6135;SDS011;24008;42.664;23.372;2023-12-28T13:53:56;40.60;;;28.67;;
6135;SDS011;24008;42.664;23.372;2023-12-28T13:56:23;52.10;;;29.80;;
6135;SDS011;24008;42.664;23.372;2023-12-28T13:58:50;52.27;;;30.33;;
6135;SDS011;24008;42.664;23.372;2023-12-28T14:01:17;51.60;;;30.13;;
6135;SDS011;24008;42.664;23.372;2023-12-28T14:03:45;52.77;;;31.20;;
6135;SDS011;24008;42.664;23.372;2023-12-28T14:06:15;49.97;;;30.97;;
6135;SDS011;24008;42.664;23.372;2023-12-28T14:08:45;51.00;;;31.93;;
6135;SDS011;24008;42.664;23.372;2023-12-28T14:11:12;52.13;;;32.60;;
6135;SDS011;24008;42.664;23.372;2023-12-28T14:13:39;52.77;;;31.23;;
6135;SDS011;24008;42.664;23.372;2023-12-28T14:16:05;54.23;;;31.93;;
6135;SDS011;24008;42.664;23.372;2023-12-28T14:18:33;52.83;;;32.00;;
6135;SDS011;24008;42.664;23.372;2023-12-28T14:21:01;58.53;;;32.47;;
6135;SDS011;24008;42.664;23.372;2023-12-28T14:23:29;58.70;;;31.80;;
6135;SDS011;24008;42.664;23.372;2023-12-28T14:25:56;50.07;;;30.57;;